Terminal Aerodrome Forecast
Issued by NWS Wichita, KS

Home | Current Version | Previous Version | Text Only | Print | Product List | Glossary Off
Versions: 1 2 3 4 5 6 7 8 9 10 11 12 13 14 15 16 17 18 19 20

183
FTUS43 KICT 191954 AAB
TAFICT
TAF AMD
KICT 191954Z 1920/2018 17014G20KT P6SM OVC011
      TEMPO 2000/2003 4SM BR OVC006
     FM200300 15014G20KT 4SM -SHRA BR VCTS OVC010CB
     FM201300 19013KT P6SM OVC014=

USA.gov is the U.S. government's official web portal to all federal, state and local government web resources and services.